sensor_id;sensor_type;location;lat;lon;timestamp;P1;durP1;ratioP1;P2;durP2;ratioP2
54699;SDS011;40599;53.132;6.090;2022-08-01T00:00:35;13.20;;;7.50;;
54699;SDS011;40599;53.132;6.090;2022-08-01T00:03:01;10.43;;;6.90;;
54699;SDS011;40599;53.132;6.090;2022-08-01T00:05:27;12.68;;;7.43;;
54699;SDS011;40599;53.132;6.090;2022-08-01T00:07:53;8.98;;;5.60;;
54699;SDS011;40599;53.132;6.090;2022-08-01T00:10:18;6.63;;;5.50;;
54699;SDS011;40599;53.132;6.090;2022-08-01T00:12:45;9.00;;;5.70;;
54699;SDS011;40599;53.132;6.090;2022-08-01T00:15:12;8.75;;;5.35;;
54699;SDS011;40599;53.132;6.090;2022-08-01T00:17:39;6.67;;;5.40;;
54699;SDS011;40599;53.132;6.090;2022-08-01T00:20:06;7.30;;;4.88;;
54699;SDS011;40599;53.132;6.090;2022-08-01T00:22:33;7.57;;;5.40;;
54699;SDS011;40599;53.132;6.090;2022-08-01T00:25:00;9.07;;;4.75;;
54699;SDS011;40599;53.132;6.090;2022-08-01T00:27:26;6.97;;;4.38;;
54699;SDS011;40599;53.132;6.090;2022-08-01T00:29:52;11.45;;;4.65;;
54699;SDS011;40599;53.132;6.090;2022-08-01T00:32:18;8.52;;;4.97;;
54699;SDS011;40599;53.132;6.090;2022-08-01T00:34:44;9.80;;;4.30;;
54699;SDS011;40599;53.132;6.090;2022-08-01T00:37:10;7.07;;;4.90;;
54699;SDS011;40599;53.132;6.090;2022-08-01T00:39:36;10.50;;;5.80;;
54699;SDS011;40599;53.132;6.090;2022-08-01T00:42:08;15.07;;;5.13;;
54699;SDS011;40599;53.132;6.090;2022-08-01T00:44:35;9.57;;;4.60;;
54699;SDS011;40599;53.132;6.090;2022-08-01T00:47:02;7.03;;;4.68;;
54699;SDS011;40599;53.132;6.090;2022-08-01T00:49:28;6.95;;;5.28;;
54699;SDS011;40599;53.132;6.090;2022-08-01T00:51:54;9.45;;;5.22;;
54699;SDS011;40599;53.132;6.090;2022-08-01T00:54:20;16.42;;;5.95;;
54699;SDS011;40599;53.132;6.090;2022-08-01T00:56:48;9.40;;;5.00;;
54699;SDS011;40599;53.132;6.090;2022-08-01T00:59:14;8.23;;;5.00;;
54699;SDS011;40599;53.132;6.090;2022-08-01T01:01:42;15.87;;;5.87;;
54699;SDS011;40599;53.132;6.090;2022-08-01T01:04:08;12.68;;;5.97;;
54699;SDS011;40599;53.132;6.090;2022-08-01T01:09:37;11.73;;;6.00;;
54699;SDS011;40599;53.132;6.090;2022-08-01T01:12:50;12.13;;;5.30;;
54699;SDS011;40599;53.132;6.090;2022-08-01T01:14:56;10.27;;;4.70;;
54699;SDS011;40599;53.132;6.090;2022-08-01T01:17:45;10.30;;;4.90;;
54699;SDS011;40599;53.132;6.090;2022-08-01T01:20:33;10.37;;;4.20;;
54699;SDS011;40599;53.132;6.090;2022-08-01T01:23:10;8.93;;;3.37;;
54699;SDS011;40599;53.132;6.090;2022-08-01T01:25:51;5.07;;;3.30;;
54699;SDS011;40599;53.132;6.090;2022-08-01T01:29:02;9.57;;;3.20;;
54699;SDS011;40599;53.132;6.090;2022-08-01T01:31:33;4.93;;;3.47;;
54699;SDS011;40599;53.132;6.090;2022-08-01T01:34:05;6.23;;;3.10;;
54699;SDS011;40599;53.132;6.090;2022-08-01T01:36:34;9.10;;;3.43;;
54699;SDS011;40599;53.132;6.090;2022-08-01T01:39:02;6.57;;;2.77;;
54699;SDS011;40599;53.132;6.090;2022-08-01T01:41:28;11.27;;;3.13;;
54699;SDS011;40599;53.132;6.090;2022-08-01T01:43:54;5.38;;;2.75;;
54699;SDS011;40599;53.132;6.090;2022-08-01T01:46:22;6.30;;;3.07;;
54699;SDS011;40599;53.132;6.090;2022-08-01T01:48:52;5.77;;;2.93;;
54699;SDS011;40599;53.132;6.090;2022-08-01T01:51:21;5.97;;;3.30;;
54699;SDS011;40599;53.132;6.090;2022-08-01T01:53:49;7.87;;;3.53;;
54699;SDS011;40599;53.132;6.090;2022-08-01T01:58:42;5.27;;;2.80;;
54699;SDS011;40599;53.132;6.090;2022-08-01T02:01:09;6.13;;;3.03;;
54699;SDS011;40599;53.132;6.090;2022-08-01T02:03:37;6.80;;;3.00;;
54699;SDS011;40599;53.132;6.090;2022-08-01T02:06:06;9.47;;;3.23;;
54699;SDS011;40599;53.132;6.090;2022-08-01T02:08:32;8.52;;;2.72;;
54699;SDS011;40599;53.132;6.090;2022-08-01T02:11:00;6.73;;;3.20;;
54699;SDS011;40599;53.132;6.090;2022-08-01T02:13:48;6.90;;;3.47;;
54699;SDS011;40599;53.132;6.090;2022-08-01T02:16:26;13.03;;;4.47;;
54699;SDS011;40599;53.132;6.090;2022-08-01T02:19:04;9.70;;;4.20;;
54699;SDS011;40599;53.132;6.090;2022-08-01T02:22:16;11.63;;;4.35;;
54699;SDS011;40599;53.132;6.090;2022-08-01T02:27:10;11.57;;;4.13;;
54699;SDS011;40599;53.132;6.090;2022-08-01T02:29:40;10.03;;;4.07;;
54699;SDS011;40599;53.132;6.090;2022-08-01T02:32:25;9.50;;;4.47;;
54699;SDS011;40599;53.132;6.090;2022-08-01T02:34:56;11.03;;;4.00;;
54699;SDS011;40599;53.132;6.090;2022-08-01T02:37:24;8.10;;;4.07;;
54699;SDS011;40599;53.132;6.090;2022-08-01T02:39:54;10.83;;;3.93;;
54699;SDS011;40599;53.132;6.090;2022-08-01T02:42:20;10.02;;;3.85;;
54699;SDS011;40599;53.132;6.090;2022-08-01T02:44:49;17.77;;;4.30;;
54699;SDS011;40599;53.132;6.090;2022-08-01T02:47:17;18.33;;;4.80;;
54699;SDS011;40599;53.132;6.090;2022-08-01T02:49:46;11.73;;;4.80;;
54699;SDS011;40599;53.132;6.090;2022-08-01T02:52:14;15.07;;;4.97;;
54699;SDS011;40599;53.132;6.090;2022-08-01T02:54:45;14.70;;;5.03;;
54699;SDS011;40599;53.132;6.090;2022-08-01T02:57:14;17.30;;;5.10;;
54699;SDS011;40599;53.132;6.090;2022-08-01T02:59:42;19.50;;;4.70;;
54699;SDS011;40599;53.132;6.090;2022-08-01T03:02:09;16.37;;;5.43;;
54699;SDS011;40599;53.132;6.090;2022-08-01T03:04:37;10.93;;;4.97;;
54699;SDS011;40599;53.132;6.090;2022-08-01T03:07:05;14.23;;;4.87;;
54699;SDS011;40599;53.132;6.090;2022-08-01T03:09:34;13.67;;;4.77;;
54699;SDS011;40599;53.132;6.090;2022-08-01T03:12:04;15.67;;;4.70;;
54699;SDS011;40599;53.132;6.090;2022-08-01T03:14:36;16.77;;;5.17;;
54699;SDS011;40599;53.132;6.090;2022-08-01T03:17:04;14.87;;;5.37;;
54699;SDS011;40599;53.132;6.090;2022-08-01T03:19:32;15.67;;;5.57;;
54699;SDS011;40599;53.132;6.090;2022-08-01T03:21:59;14.33;;;6.57;;
54699;SDS011;40599;53.132;6.090;2022-08-01T03:24:31;11.83;;;5.63;;
54699;SDS011;40599;53.132;6.090;2022-08-01T03:26:58;19.30;;;6.50;;
54699;SDS011;40599;53.132;6.090;2022-08-01T03:29:25;17.77;;;6.10;;
54699;SDS011;40599;53.132;6.090;2022-08-01T03:31:52;23.37;;;6.10;;
54699;SDS011;40599;53.132;6.090;2022-08-01T03:34:18;22.95;;;5.93;;
54699;SDS011;40599;53.132;6.090;2022-08-01T03:40:03;18.27;;;6.30;;
54699;SDS011;40599;53.132;6.090;2022-08-01T03:42:34;18.10;;;5.90;;
54699;SDS011;40599;53.132;6.090;2022-08-01T03:45:04;18.77;;;5.60;;
54699;SDS011;40599;53.132;6.090;2022-08-01T03:47:35;20.07;;;4.80;;
54699;SDS011;40599;53.132;6.090;2022-08-01T03:50:06;24.35;;;5.25;;
54699;SDS011;40599;53.132;6.090;2022-08-01T03:52:33;25.77;;;5.03;;
54699;SDS011;40599;53.132;6.090;2022-08-01T03:55:03;20.50;;;5.60;;
54699;SDS011;40599;53.132;6.090;2022-08-01T03:57:34;19.30;;;5.17;;
54699;SDS011;40599;53.132;6.090;2022-08-01T04:00:00;18.77;;;5.03;;
54699;SDS011;40599;53.132;6.090;2022-08-01T04:02:31;17.57;;;4.60;;
54699;SDS011;40599;53.132;6.090;2022-08-01T04:04:57;22.30;;;5.75;;
54699;SDS011;40599;53.132;6.090;2022-08-01T04:07:25;22.27;;;5.23;;
54699;SDS011;40599;53.132;6.090;2022-08-01T04:09:53;19.27;;;5.30;;
54699;SDS011;40599;53.132;6.090;2022-08-01T04:12:19;19.53;;;4.50;;
54699;SDS011;40599;53.132;6.090;2022-08-01T04:14:45;24.90;;;4.88;;
54699;SDS011;40599;53.132;6.090;2022-08-01T04:17:12;19.48;;;5.25;;
54699;SDS011;40599;53.132;6.090;2022-08-01T04:19:37;15.55;;;3.97;;
54699;SDS011;40599;53.132;6.090;2022-08-01T04:22:04;23.90;;;4.70;;
54699;SDS011;40599;53.132;6.090;2022-08-01T04:24:30;23.07;;;5.10;;
54699;SDS011;40599;53.132;6.090;2022-08-01T04:27:00;20.17;;;5.27;;
54699;SDS011;40599;53.132;6.090;2022-08-01T04:29:28;19.33;;;4.60;;
54699;SDS011;40599;53.132;6.090;2022-08-01T04:31:56;17.00;;;4.60;;
54699;SDS011;40599;53.132;6.090;2022-08-01T04:34:25;25.23;;;4.80;;
54699;SDS011;40599;53.132;6.090;2022-08-01T04:36:54;17.60;;;4.40;;
54699;SDS011;40599;53.132;6.090;2022-08-01T04:39:23;20.53;;;4.60;;
54699;SDS011;40599;53.132;6.090;2022-08-01T04:41:52;20.07;;;3.90;;
54699;SDS011;40599;53.132;6.090;2022-08-01T04:44:21;27.63;;;4.70;;
54699;SDS011;40599;53.132;6.090;2022-08-01T04:46:48;19.57;;;4.70;;
54699;SDS011;40599;53.132;6.090;2022-08-01T04:49:15;20.40;;;5.13;;
54699;SDS011;40599;53.132;6.090;2022-08-01T04:51:51;18.60;;;3.63;;
54699;SDS011;40599;53.132;6.090;2022-08-01T04:54:23;20.90;;;4.00;;
54699;SDS011;40599;53.132;6.090;2022-08-01T04:56:52;20.07;;;4.40;;
54699;SDS011;40599;53.132;6.090;2022-08-01T04:59:20;26.43;;;4.37;;
54699;SDS011;40599;53.132;6.090;2022-08-01T05:02:23;17.97;;;4.60;;
54699;SDS011;40599;53.132;6.090;2022-08-01T05:04:49;18.30;;;3.83;;
54699;SDS011;40599;53.132;6.090;2022-08-01T05:07:15;30.40;;;4.78;;
54699;SDS011;40599;53.132;6.090;2022-08-01T05:09:41;29.45;;;4.28;;
54699;SDS011;40599;53.132;6.090;2022-08-01T05:12:07;19.33;;;4.57;;
54699;SDS011;40599;53.132;6.090;2022-08-01T05:17:00;16.83;;;3.70;;
54699;SDS011;40599;53.132;6.090;2022-08-01T05:19:28;23.63;;;4.30;;
54699;SDS011;40599;53.132;6.090;2022-08-01T05:21:57;21.93;;;4.90;;
54699;SDS011;40599;53.132;6.090;2022-08-01T05:26:49;18.47;;;4.13;;
54699;SDS011;40599;53.132;6.090;2022-08-01T05:29:15;20.13;;;4.30;;
54699;SDS011;40599;53.132;6.090;2022-08-01T05:31:41;20.25;;;4.13;;
54699;SDS011;40599;53.132;6.090;2022-08-01T05:34:06;16.90;;;4.00;;
54699;SDS011;40599;53.132;6.090;2022-08-01T05:36:32;32.70;;;4.70;;
54699;SDS011;40599;53.132;6.090;2022-08-01T05:38:58;18.27;;;4.33;;
54699;SDS011;40599;53.132;6.090;2022-08-01T05:41:23;22.53;;;4.30;;
54699;SDS011;40599;53.132;6.090;2022-08-01T05:43:49;30.30;;;4.93;;
54699;SDS011;40599;53.132;6.090;2022-08-01T05:46:15;21.20;;;4.00;;
54699;SDS011;40599;53.132;6.090;2022-08-01T05:48:41;27.50;;;4.27;;
54699;SDS011;40599;53.132;6.090;2022-08-01T05:51:06;20.60;;;4.47;;
54699;SDS011;40599;53.132;6.090;2022-08-01T05:53:32;27.53;;;4.13;;
54699;SDS011;40599;53.132;6.090;2022-08-01T05:56:00;22.07;;;3.93;;
54699;SDS011;40599;53.132;6.090;2022-08-01T05:58:29;23.87;;;4.50;;
54699;SDS011;40599;53.132;6.090;2022-08-01T06:00:54;21.27;;;3.73;;
54699;SDS011;40599;53.132;6.090;2022-08-01T06:03:20;21.63;;;3.83;;
54699;SDS011;40599;53.132;6.090;2022-08-01T06:05:46;22.87;;;3.63;;
54699;SDS011;40599;53.132;6.090;2022-08-01T06:08:12;21.10;;;3.97;;
54699;SDS011;40599;53.132;6.090;2022-08-01T06:10:37;15.40;;;3.43;;
54699;SDS011;40599;53.132;6.090;2022-08-01T06:13:04;16.38;;;3.72;;
54699;SDS011;40599;53.132;6.090;2022-08-01T06:15:31;25.27;;;5.38;;
54699;SDS011;40599;53.132;6.090;2022-08-01T06:17:57;24.07;;;4.57;;
54699;SDS011;40599;53.132;6.090;2022-08-01T06:20:23;24.58;;;4.60;;
54699;SDS011;40599;53.132;6.090;2022-08-01T06:22:49;18.17;;;4.13;;
54699;SDS011;40599;53.132;6.090;2022-08-01T06:25:17;20.57;;;4.67;;
54699;SDS011;40599;53.132;6.090;2022-08-01T06:27:43;18.40;;;4.30;;
54699;SDS011;40599;53.132;6.090;2022-08-01T06:30:09;23.02;;;4.60;;
54699;SDS011;40599;53.132;6.090;2022-08-01T06:32:35;23.63;;;4.45;;
54699;SDS011;40599;53.132;6.090;2022-08-01T06:35:01;25.17;;;5.13;;
54699;SDS011;40599;53.132;6.090;2022-08-01T06:37:28;22.38;;;3.85;;
54699;SDS011;40599;53.132;6.090;2022-08-01T06:39:55;20.70;;;3.73;;
54699;SDS011;40599;53.132;6.090;2022-08-01T06:42:21;23.80;;;4.70;;
54699;SDS011;40599;53.132;6.090;2022-08-01T06:44:47;25.57;;;4.67;;
54699;SDS011;40599;53.132;6.090;2022-08-01T06:47:12;21.10;;;3.67;;
54699;SDS011;40599;53.132;6.090;2022-08-01T06:49:38;17.83;;;4.07;;
54699;SDS011;40599;53.132;6.090;2022-08-01T06:52:04;21.35;;;3.75;;
54699;SDS011;40599;53.132;6.090;2022-08-01T06:54:30;19.53;;;4.07;;
54699;SDS011;40599;53.132;6.090;2022-08-01T06:56:55;17.57;;;3.50;;
54699;SDS011;40599;53.132;6.090;2022-08-01T06:59:21;12.13;;;3.67;;
54699;SDS011;40599;53.132;6.090;2022-08-01T07:01:47;20.10;;;4.32;;
54699;SDS011;40599;53.132;6.090;2022-08-01T07:04:13;13.27;;;3.47;;
54699;SDS011;40599;53.132;6.090;2022-08-01T07:06:38;23.40;;;3.90;;
54699;SDS011;40599;53.132;6.090;2022-08-01T07:09:04;19.47;;;3.50;;
54699;SDS011;40599;53.132;6.090;2022-08-01T07:11:30;17.07;;;4.43;;
54699;SDS011;40599;53.132;6.090;2022-08-01T07:13:55;11.40;;;2.90;;
54699;SDS011;40599;53.132;6.090;2022-08-01T07:16:22;12.60;;;3.15;;
54699;SDS011;40599;53.132;6.090;2022-08-01T07:18:47;22.77;;;3.95;;
54699;SDS011;40599;53.132;6.090;2022-08-01T07:21:13;16.37;;;3.50;;
54699;SDS011;40599;53.132;6.090;2022-08-01T07:23:39;17.60;;;3.23;;
54699;SDS011;40599;53.132;6.090;2022-08-01T07:26:04;19.07;;;3.07;;
54699;SDS011;40599;53.132;6.090;2022-08-01T07:28:31;10.73;;;2.97;;
54699;SDS011;40599;53.132;6.090;2022-08-01T07:30:57;12.50;;;3.33;;
54699;SDS011;40599;53.132;6.090;2022-08-01T07:33:23;14.20;;;3.03;;
54699;SDS011;40599;53.132;6.090;2022-08-01T07:35:48;16.13;;;3.77;;
54699;SDS011;40599;53.132;6.090;2022-08-01T07:38:15;13.07;;;3.03;;
54699;SDS011;40599;53.132;6.090;2022-08-01T07:43:08;17.53;;;3.03;;
54699;SDS011;40599;53.132;6.090;2022-08-01T07:45:34;16.90;;;3.17;;
54699;SDS011;40599;53.132;6.090;2022-08-01T07:48:03;11.77;;;3.10;;
54699;SDS011;40599;53.132;6.090;2022-08-01T07:50:30;11.90;;;2.80;;
54699;SDS011;40599;53.132;6.090;2022-08-01T07:52:56;12.55;;;2.53;;
54699;SDS011;40599;53.132;6.090;2022-08-01T07:55:22;13.15;;;2.33;;
54699;SDS011;40599;53.132;6.090;2022-08-01T07:57:48;11.93;;;2.55;;
54699;SDS011;40599;53.132;6.090;2022-08-01T08:00:13;11.70;;;2.50;;
54699;SDS011;40599;53.132;6.090;2022-08-01T08:02:40;12.77;;;2.70;;
54699;SDS011;40599;53.132;6.090;2022-08-01T08:05:06;14.48;;;2.90;;
54699;SDS011;40599;53.132;6.090;2022-08-01T08:07:32;18.73;;;2.88;;
54699;SDS011;40599;53.132;6.090;2022-08-01T08:09:58;13.85;;;3.00;;
54699;SDS011;40599;53.132;6.090;2022-08-01T08:12:24;12.13;;;2.90;;
54699;SDS011;40599;53.132;6.090;2022-08-01T08:14:49;10.00;;;2.22;;
54699;SDS011;40599;53.132;6.090;2022-08-01T08:17:15;9.90;;;2.80;;
54699;SDS011;40599;53.132;6.090;2022-08-01T08:19:41;15.65;;;2.45;;
54699;SDS011;40599;53.132;6.090;2022-08-01T08:22:07;12.23;;;2.90;;
54699;SDS011;40599;53.132;6.090;2022-08-01T08:24:34;14.40;;;2.78;;
54699;SDS011;40599;53.132;6.090;2022-08-01T08:27:01;9.10;;;2.70;;
54699;SDS011;40599;53.132;6.090;2022-08-01T08:31:55;13.05;;;2.50;;
54699;SDS011;40599;53.132;6.090;2022-08-01T08:34:22;10.27;;;2.53;;
54699;SDS011;40599;53.132;6.090;2022-08-01T08:36:49;16.48;;;2.85;;
54699;SDS011;40599;53.132;6.090;2022-08-01T08:39:15;19.05;;;2.60;;
54699;SDS011;40599;53.132;6.090;2022-08-01T08:41:41;11.93;;;2.72;;
54699;SDS011;40599;53.132;6.090;2022-08-01T08:44:08;16.35;;;2.95;;
54699;SDS011;40599;53.132;6.090;2022-08-01T08:46:39;15.30;;;2.50;;
54699;SDS011;40599;53.132;6.090;2022-08-01T08:49:07;13.27;;;2.67;;
54699;SDS011;40599;53.132;6.090;2022-08-01T08:51:34;12.27;;;2.45;;
54699;SDS011;40599;53.132;6.090;2022-08-01T08:54:05;12.63;;;2.30;;
54699;SDS011;40599;53.132;6.090;2022-08-01T08:56:32;10.90;;;2.43;;
54699;SDS011;40599;53.132;6.090;2022-08-01T08:59:00;17.07;;;2.77;;
54699;SDS011;40599;53.132;6.090;2022-08-01T09:01:27;11.70;;;2.20;;
54699;SDS011;40599;53.132;6.090;2022-08-01T09:03:53;8.57;;;2.17;;
54699;SDS011;40599;53.132;6.090;2022-08-01T09:06:19;16.90;;;3.05;;
54699;SDS011;40599;53.132;6.090;2022-08-01T09:08:45;11.65;;;2.33;;
54699;SDS011;40599;53.132;6.090;2022-08-01T09:11:12;14.18;;;2.90;;
54699;SDS011;40599;53.132;6.090;2022-08-01T09:13:38;14.97;;;2.97;;
54699;SDS011;40599;53.132;6.090;2022-08-01T09:16:04;13.38;;;2.58;;
54699;SDS011;40599;53.132;6.090;2022-08-01T09:21:07;9.37;;;2.50;;
54699;SDS011;40599;53.132;6.090;2022-08-01T09:23:38;13.03;;;2.40;;
54699;SDS011;40599;53.132;6.090;2022-08-01T09:26:15;11.90;;;2.43;;
54699;SDS011;40599;53.132;6.090;2022-08-01T09:28:43;10.90;;;2.27;;
54699;SDS011;40599;53.132;6.090;2022-08-01T09:31:12;11.57;;;2.40;;
54699;SDS011;40599;53.132;6.090;2022-08-01T09:33:59;6.67;;;2.00;;
54699;SDS011;40599;53.132;6.090;2022-08-01T09:39:17;8.57;;;2.60;;
54699;SDS011;40599;53.132;6.090;2022-08-01T09:41:44;9.87;;;2.50;;
54699;SDS011;40599;53.132;6.090;2022-08-01T09:46:46;9.17;;;2.20;;
54699;SDS011;40599;53.132;6.090;2022-08-01T09:49:36;9.30;;;2.40;;
54699;SDS011;40599;53.132;6.090;2022-08-01T09:54:36;11.37;;;2.40;;
54699;SDS011;40599;53.132;6.090;2022-08-01T09:57:18;10.80;;;2.25;;
54699;SDS011;40599;53.132;6.090;2022-08-01T09:59:46;11.73;;;2.63;;
54699;SDS011;40599;53.132;6.090;2022-08-01T10:02:14;11.23;;;2.40;;
54699;SDS011;40599;53.132;6.090;2022-08-01T10:04:56;12.83;;;2.13;;
54699;SDS011;40599;53.132;6.090;2022-08-01T10:07:22;10.65;;;3.95;;
54699;SDS011;40599;53.132;6.090;2022-08-01T10:09:47;15.23;;;3.03;;
54699;SDS011;40599;53.132;6.090;2022-08-01T10:12:15;9.77;;;2.42;;
54699;SDS011;40599;53.132;6.090;2022-08-01T10:14:45;8.83;;;2.00;;
54699;SDS011;40599;53.132;6.090;2022-08-01T10:17:17;6.83;;;2.40;;
54699;SDS011;40599;53.132;6.090;2022-08-01T10:19:45;9.83;;;2.53;;
54699;SDS011;40599;53.132;6.090;2022-08-01T10:22:13;13.53;;;2.30;;
54699;SDS011;40599;53.132;6.090;2022-08-01T10:24:41;11.23;;;3.00;;
54699;SDS011;40599;53.132;6.090;2022-08-01T10:27:09;10.70;;;2.50;;
54699;SDS011;40599;53.132;6.090;2022-08-01T10:29:37;12.53;;;2.17;;
54699;SDS011;40599;53.132;6.090;2022-08-01T10:32:06;13.43;;;2.40;;
54699;SDS011;40599;53.132;6.090;2022-08-01T10:34:34;12.53;;;2.60;;
54699;SDS011;40599;53.132;6.090;2022-08-01T10:37:03;9.37;;;2.13;;
54699;SDS011;40599;53.132;6.090;2022-08-01T10:39:30;11.33;;;2.73;;
54699;SDS011;40599;53.132;6.090;2022-08-01T10:41:57;11.87;;;2.80;;
54699;SDS011;40599;53.132;6.090;2022-08-01T10:44:24;11.63;;;2.55;;
54699;SDS011;40599;53.132;6.090;2022-08-01T10:46:52;8.83;;;2.27;;
54699;SDS011;40599;53.132;6.090;2022-08-01T10:49:23;9.37;;;2.20;;
54699;SDS011;40599;53.132;6.090;2022-08-01T10:51:52;12.87;;;2.43;;
54699;SDS011;40599;53.132;6.090;2022-08-01T10:54:18;7.68;;;2.22;;
54699;SDS011;40599;53.132;6.090;2022-08-01T10:56:46;10.85;;;2.35;;
54699;SDS011;40599;53.132;6.090;2022-08-01T10:59:14;11.20;;;2.30;;
54699;SDS011;40599;53.132;6.090;2022-08-01T11:02:00;7.03;;;2.13;;
54699;SDS011;40599;53.132;6.090;2022-08-01T11:07:06;10.20;;;2.30;;
54699;SDS011;40599;53.132;6.090;2022-08-01T11:09:40;13.30;;;2.40;;
54699;SDS011;40599;53.132;6.090;2022-08-01T11:12:09;8.80;;;2.03;;
54699;SDS011;40599;53.132;6.090;2022-08-01T11:17:37;10.80;;;2.15;;
54699;SDS011;40599;53.132;6.090;2022-08-01T11:33:10;6.07;;;2.00;;
54699;SDS011;40599;53.132;6.090;2022-08-01T11:41:35;8.40;;;2.00;;
54699;SDS011;40599;53.132;6.090;2022-08-01T11:54:38;6.00;;;2.03;;
54699;SDS011;40599;53.132;6.090;2022-08-01T11:57:09;7.13;;;2.20;;
54699;SDS011;40599;53.132;6.090;2022-08-01T11:59:37;11.53;;;2.43;;
54699;SDS011;40599;53.132;6.090;2022-08-01T12:02:04;6.87;;;1.90;;
54699;SDS011;40599;53.132;6.090;2022-08-01T12:04:47;7.23;;;2.20;;
54699;SDS011;40599;53.132;6.090;2022-08-01T12:07:14;12.40;;;2.70;;
54699;SDS011;40599;53.132;6.090;2022-08-01T12:09:40;8.13;;;2.25;;
54699;SDS011;40599;53.132;6.090;2022-08-01T12:12:06;7.25;;;2.30;;
54699;SDS011;40599;53.132;6.090;2022-08-01T12:14:33;4.23;;;1.80;;
54699;SDS011;40599;53.132;6.090;2022-08-01T12:16:59;8.77;;;2.10;;
54699;SDS011;40599;53.132;6.090;2022-08-01T12:19:25;8.57;;;2.08;;
54699;SDS011;40599;53.132;6.090;2022-08-01T12:24:34;9.57;;;1.80;;
54699;SDS011;40599;53.132;6.090;2022-08-01T12:27:00;11.13;;;2.37;;
54699;SDS011;40599;53.132;6.090;2022-08-01T12:29:33;7.38;;;1.92;;
54699;SDS011;40599;53.132;6.090;2022-08-01T12:32:00;9.83;;;2.10;;
54699;SDS011;40599;53.132;6.090;2022-08-01T12:36:57;7.47;;;2.03;;
54699;SDS011;40599;53.132;6.090;2022-08-01T12:39:34;7.43;;;2.23;;
54699;SDS011;40599;53.132;6.090;2022-08-01T12:42:00;8.93;;;2.00;;
54699;SDS011;40599;53.132;6.090;2022-08-01T12:44:27;11.23;;;2.33;;
54699;SDS011;40599;53.132;6.090;2022-08-01T12:46:54;5.87;;;2.10;;
54699;SDS011;40599;53.132;6.090;2022-08-01T12:49:21;7.68;;;1.98;;
54699;SDS011;40599;53.132;6.090;2022-08-01T12:51:47;6.85;;;2.08;;
54699;SDS011;40599;53.132;6.090;2022-08-01T12:54:14;10.70;;;2.10;;
54699;SDS011;40599;53.132;6.090;2022-08-01T12:56:40;8.55;;;2.17;;
54699;SDS011;40599;53.132;6.090;2022-08-01T12:59:25;8.35;;;2.42;;
54699;SDS011;40599;53.132;6.090;2022-08-01T13:01:53;4.87;;;2.27;;
54699;SDS011;40599;53.132;6.090;2022-08-01T13:04:23;7.60;;;2.20;;
54699;SDS011;40599;53.132;6.090;2022-08-01T13:06:52;6.07;;;2.43;;
54699;SDS011;40599;53.132;6.090;2022-08-01T13:09:18;12.60;;;2.20;;
54699;SDS011;40599;53.132;6.090;2022-08-01T13:11:44;6.25;;;2.30;;
54699;SDS011;40599;53.132;6.090;2022-08-01T13:14:27;9.67;;;2.30;;
54699;SDS011;40599;53.132;6.090;2022-08-01T13:16:54;9.20;;;2.27;;
54699;SDS011;40599;53.132;6.090;2022-08-01T13:19:20;8.68;;;2.20;;
54699;SDS011;40599;53.132;6.090;2022-08-01T13:21:56;13.02;;;2.70;;
54699;SDS011;40599;53.132;6.090;2022-08-01T13:24:23;8.18;;;2.30;;
54699;SDS011;40599;53.132;6.090;2022-08-01T13:26:53;8.27;;;2.30;;
54699;SDS011;40599;53.132;6.090;2022-08-01T13:29:29;9.70;;;2.30;;
54699;SDS011;40599;53.132;6.090;2022-08-01T13:32:13;5.07;;;2.17;;
54699;SDS011;40599;53.132;6.090;2022-08-01T13:34:40;7.17;;;2.20;;
54699;SDS011;40599;53.132;6.090;2022-08-01T13:37:05;12.93;;;3.00;;
54699;SDS011;40599;53.132;6.090;2022-08-01T13:39:31;11.13;;;2.55;;
54699;SDS011;40599;53.132;6.090;2022-08-01T13:42:09;6.50;;;2.30;;
54699;SDS011;40599;53.132;6.090;2022-08-01T13:44:37;7.73;;;2.27;;
54699;SDS011;40599;53.132;6.090;2022-08-01T13:47:03;4.50;;;1.80;;
54699;SDS011;40599;53.132;6.090;2022-08-01T13:49:29;7.35;;;2.28;;
54699;SDS011;40599;53.132;6.090;2022-08-01T13:51:55;7.57;;;1.98;;
54699;SDS011;40599;53.132;6.090;2022-08-01T13:54:21;6.93;;;2.17;;
54699;SDS011;40599;53.132;6.090;2022-08-01T13:56:48;6.93;;;2.00;;
54699;SDS011;40599;53.132;6.090;2022-08-01T13:59:14;5.90;;;1.80;;
54699;SDS011;40599;53.132;6.090;2022-08-01T14:01:40;6.13;;;1.90;;
54699;SDS011;40599;53.132;6.090;2022-08-01T14:04:06;6.93;;;2.25;;
54699;SDS011;40599;53.132;6.090;2022-08-01T14:06:32;8.35;;;2.00;;
54699;SDS011;40599;53.132;6.090;2022-08-01T14:09:00;7.13;;;2.47;;
54699;SDS011;40599;53.132;6.090;2022-08-01T14:13:52;5.83;;;2.00;;
54699;SDS011;40599;53.132;6.090;2022-08-01T14:16:18;9.63;;;2.53;;
54699;SDS011;40599;53.132;6.090;2022-08-01T14:18:44;6.65;;;1.90;;
54699;SDS011;40599;53.132;6.090;2022-08-01T14:21:09;10.05;;;1.92;;
54699;SDS011;40599;53.132;6.090;2022-08-01T14:23:35;7.30;;;2.05;;
54699;SDS011;40599;53.132;6.090;2022-08-01T14:26:01;5.53;;;1.70;;
54699;SDS011;40599;53.132;6.090;2022-08-01T14:28:27;7.50;;;2.08;;
54699;SDS011;40599;53.132;6.090;2022-08-01T14:30:53;7.18;;;2.08;;
54699;SDS011;40599;53.132;6.090;2022-08-01T14:33:20;7.33;;;2.37;;
54699;SDS011;40599;53.132;6.090;2022-08-01T14:35:46;10.95;;;2.10;;
54699;SDS011;40599;53.132;6.090;2022-08-01T14:38:12;6.75;;;2.00;;
54699;SDS011;40599;53.132;6.090;2022-08-01T14:40:38;6.63;;;2.28;;
54699;SDS011;40599;53.132;6.090;2022-08-01T14:43:05;5.80;;;2.10;;
54699;SDS011;40599;53.132;6.090;2022-08-01T14:45:31;10.25;;;1.90;;
54699;SDS011;40599;53.132;6.090;2022-08-01T14:47:58;9.13;;;2.28;;
54699;SDS011;40599;53.132;6.090;2022-08-01T14:50:24;7.53;;;2.58;;
54699;SDS011;40599;53.132;6.090;2022-08-01T14:52:51;6.77;;;2.20;;
54699;SDS011;40599;53.132;6.090;2022-08-01T14:57:46;7.90;;;2.17;;
54699;SDS011;40599;53.132;6.090;2022-08-01T15:00:12;8.10;;;2.28;;
54699;SDS011;40599;53.132;6.090;2022-08-01T15:02:39;11.00;;;2.30;;
54699;SDS011;40599;53.132;6.090;2022-08-01T15:05:05;10.13;;;1.90;;
54699;SDS011;40599;53.132;6.090;2022-08-01T15:07:31;8.13;;;2.10;;
54699;SDS011;40599;53.132;6.090;2022-08-01T15:09:57;8.20;;;2.20;;
54699;SDS011;40599;53.132;6.090;2022-08-01T15:12:23;9.60;;;2.15;;
54699;SDS011;40599;53.132;6.090;2022-08-01T15:14:49;6.45;;;2.15;;
54699;SDS011;40599;53.132;6.090;2022-08-01T15:19:43;4.53;;;1.60;;
54699;SDS011;40599;53.132;6.090;2022-08-01T15:22:10;5.53;;;1.93;;
54699;SDS011;40599;53.132;6.090;2022-08-01T15:24:36;7.05;;;2.20;;
54699;SDS011;40599;53.132;6.090;2022-08-01T15:27:02;6.20;;;2.08;;
54699;SDS011;40599;53.132;6.090;2022-08-01T15:31:54;8.90;;;1.93;;
54699;SDS011;40599;53.132;6.090;2022-08-01T15:34:20;5.55;;;1.80;;
54699;SDS011;40599;53.132;6.090;2022-08-01T15:36:47;9.27;;;2.20;;
54699;SDS011;40599;53.132;6.090;2022-08-01T15:39:13;9.55;;;2.33;;
54699;SDS011;40599;53.132;6.090;2022-08-01T15:44:05;7.13;;;2.03;;
54699;SDS011;40599;53.132;6.090;2022-08-01T15:46:31;9.98;;;2.55;;
54699;SDS011;40599;53.132;6.090;2022-08-01T15:48:57;9.48;;;1.90;;
54699;SDS011;40599;53.132;6.090;2022-08-01T15:51:29;8.90;;;1.97;;
54699;SDS011;40599;53.132;6.090;2022-08-01T15:53:54;9.15;;;1.88;;
54699;SDS011;40599;53.132;6.090;2022-08-01T15:56:20;5.72;;;1.88;;
54699;SDS011;40599;53.132;6.090;2022-08-01T15:58:46;5.47;;;2.00;;
54699;SDS011;40599;53.132;6.090;2022-08-01T16:01:12;7.47;;;2.00;;
54699;SDS011;40599;53.132;6.090;2022-08-01T16:03:37;13.48;;;2.08;;
54699;SDS011;40599;53.132;6.090;2022-08-01T16:06:03;6.18;;;2.05;;
54699;SDS011;40599;53.132;6.090;2022-08-01T16:08:29;7.38;;;2.10;;
54699;SDS011;40599;53.132;6.090;2022-08-01T16:10:55;8.65;;;1.95;;